sensor_id;sensor_type;location;lat;lon;timestamp;P1;durP1;ratioP1;P2;durP2;ratioP2
17890;SDS011;9071;48.220;14.480;2024-01-30T00:02:41;66.20;;;31.23;;
17890;SDS011;9071;48.220;14.480;2024-01-30T00:07:47;63.03;;;30.33;;
17890;SDS011;9071;48.220;14.480;2024-01-30T00:12:49;66.33;;;31.07;;
17890;SDS011;9071;48.220;14.480;2024-01-30T00:17:51;65.73;;;31.80;;
17890;SDS011;9071;48.220;14.480;2024-01-30T00:22:54;61.63;;;30.90;;
17890;SDS011;9071;48.220;14.480;2024-01-30T00:27:56;60.17;;;29.23;;
17890;SDS011;9071;48.220;14.480;2024-01-30T00:32:58;64.80;;;30.43;;
17890;SDS011;9071;48.220;14.480;2024-01-30T00:38:02;69.80;;;30.23;;
17890;SDS011;9071;48.220;14.480;2024-01-30T00:43:04;75.70;;;32.07;;
17890;SDS011;9071;48.220;14.480;2024-01-30T00:48:06;69.83;;;31.67;;
17890;SDS011;9071;48.220;14.480;2024-01-30T00:53:10;69.40;;;32.40;;
17890;SDS011;9071;48.220;14.480;2024-01-30T00:58:12;69.27;;;31.03;;
17890;SDS011;9071;48.220;14.480;2024-01-30T01:03:14;63.50;;;30.47;;
17890;SDS011;9071;48.220;14.480;2024-01-30T01:08:18;65.33;;;32.97;;
17890;SDS011;9071;48.220;14.480;2024-01-30T01:13:20;62.33;;;30.23;;
17890;SDS011;9071;48.220;14.480;2024-01-30T01:18:22;57.60;;;29.50;;
17890;SDS011;9071;48.220;14.480;2024-01-30T01:23:25;62.07;;;29.53;;
17890;SDS011;9071;48.220;14.480;2024-01-30T01:28:27;61.97;;;28.70;;
17890;SDS011;9071;48.220;14.480;2024-01-30T01:33:29;65.07;;;28.80;;
17890;SDS011;9071;48.220;14.480;2024-01-30T01:38:33;71.27;;;29.33;;
17890;SDS011;9071;48.220;14.480;2024-01-30T01:43:35;57.87;;;27.93;;
17890;SDS011;9071;48.220;14.480;2024-01-30T01:48:38;63.37;;;27.20;;
17890;SDS011;9071;48.220;14.480;2024-01-30T01:53:42;62.53;;;29.87;;
17890;SDS011;9071;48.220;14.480;2024-01-30T01:58:44;63.90;;;28.77;;
17890;SDS011;9071;48.220;14.480;2024-01-30T02:03:47;55.97;;;29.17;;
17890;SDS011;9071;48.220;14.480;2024-01-30T02:08:51;61.30;;;27.40;;
17890;SDS011;9071;48.220;14.480;2024-01-30T02:13:53;52.20;;;27.10;;
17890;SDS011;9071;48.220;14.480;2024-01-30T02:18:55;60.60;;;28.17;;
17890;SDS011;9071;48.220;14.480;2024-01-30T02:23:58;61.60;;;28.77;;
17890;SDS011;9071;48.220;14.480;2024-01-30T02:29:02;59.30;;;27.77;;
17890;SDS011;9071;48.220;14.480;2024-01-30T02:34:04;55.40;;;26.63;;
17890;SDS011;9071;48.220;14.480;2024-01-30T02:39:07;65.07;;;29.10;;
17890;SDS011;9071;48.220;14.480;2024-01-30T02:44:09;66.03;;;29.40;;
17890;SDS011;9071;48.220;14.480;2024-01-30T02:49:11;52.43;;;26.73;;
17890;SDS011;9071;48.220;14.480;2024-01-30T02:54:16;55.53;;;27.40;;
17890;SDS011;9071;48.220;14.480;2024-01-30T02:59:18;60.03;;;27.17;;
17890;SDS011;9071;48.220;14.480;2024-01-30T03:04:20;62.30;;;28.50;;
17890;SDS011;9071;48.220;14.480;2024-01-30T03:09:24;58.87;;;26.97;;
17890;SDS011;9071;48.220;14.480;2024-01-30T03:14:26;57.87;;;26.90;;
17890;SDS011;9071;48.220;14.480;2024-01-30T03:19:28;57.27;;;28.30;;
17890;SDS011;9071;48.220;14.480;2024-01-30T03:24:31;54.87;;;28.37;;
17890;SDS011;9071;48.220;14.480;2024-01-30T03:29:33;60.13;;;27.60;;
17890;SDS011;9071;48.220;14.480;2024-01-30T03:34:35;57.13;;;28.33;;
17890;SDS011;9071;48.220;14.480;2024-01-30T03:39:39;68.73;;;29.10;;
17890;SDS011;9071;48.220;14.480;2024-01-30T03:44:41;66.70;;;29.43;;
17890;SDS011;9071;48.220;14.480;2024-01-30T03:49:44;53.70;;;26.60;;
17890;SDS011;9071;48.220;14.480;2024-01-30T03:54:47;61.17;;;27.73;;
17890;SDS011;9071;48.220;14.480;2024-01-30T03:59:49;53.43;;;27.80;;
17890;SDS011;9071;48.220;14.480;2024-01-30T04:04:51;54.17;;;26.77;;
17890;SDS011;9071;48.220;14.480;2024-01-30T04:09:54;60.20;;;27.67;;
17890;SDS011;9071;48.220;14.480;2024-01-30T04:14:56;57.63;;;26.77;;
17890;SDS011;9071;48.220;14.480;2024-01-30T04:19:58;52.90;;;24.90;;
17890;SDS011;9071;48.220;14.480;2024-01-30T04:25:02;52.33;;;25.50;;
17890;SDS011;9071;48.220;14.480;2024-01-30T04:30:05;55.17;;;26.30;;
17890;SDS011;9071;48.220;14.480;2024-01-30T04:35:07;51.87;;;26.20;;
17890;SDS011;9071;48.220;14.480;2024-01-30T04:40:11;50.97;;;24.97;;
17890;SDS011;9071;48.220;14.480;2024-01-30T04:45:14;52.37;;;25.13;;
17890;SDS011;9071;48.220;14.480;2024-01-30T04:50:16;53.23;;;25.10;;
17890;SDS011;9071;48.220;14.480;2024-01-30T04:55:20;47.87;;;23.60;;
17890;SDS011;9071;48.220;14.480;2024-01-30T05:00:22;52.27;;;24.60;;
17890;SDS011;9071;48.220;14.480;2024-01-30T05:05:24;49.93;;;24.97;;
17890;SDS011;9071;48.220;14.480;2024-01-30T05:10:27;55.17;;;26.37;;
17890;SDS011;9071;48.220;14.480;2024-01-30T05:15:29;57.80;;;26.40;;
17890;SDS011;9071;48.220;14.480;2024-01-30T05:20:31;58.33;;;28.43;;
17890;SDS011;9071;48.220;14.480;2024-01-30T05:25:35;72.53;;;31.90;;
17890;SDS011;9071;48.220;14.480;2024-01-30T05:30:37;64.17;;;29.80;;
17890;SDS011;9071;48.220;14.480;2024-01-30T05:35:39;66.33;;;30.77;;
17890;SDS011;9071;48.220;14.480;2024-01-30T05:40:43;65.70;;;29.57;;
17890;SDS011;9071;48.220;14.480;2024-01-30T05:45:45;65.93;;;31.47;;
17890;SDS011;9071;48.220;14.480;2024-01-30T05:50:47;75.27;;;34.47;;
17890;SDS011;9071;48.220;14.480;2024-01-30T05:55:50;70.47;;;34.77;;
17890;SDS011;9071;48.220;14.480;2024-01-30T06:00:52;62.00;;;31.63;;
17890;SDS011;9071;48.220;14.480;2024-01-30T06:05:54;62.73;;;31.70;;
17890;SDS011;9071;48.220;14.480;2024-01-30T06:10:57;66.60;;;30.93;;
17890;SDS011;9071;48.220;14.480;2024-01-30T06:16:00;62.47;;;30.70;;
17890;SDS011;9071;48.220;14.480;2024-01-30T06:21:03;56.73;;;29.63;;
17890;SDS011;9071;48.220;14.480;2024-01-30T06:26:07;62.67;;;30.00;;
17890;SDS011;9071;48.220;14.480;2024-01-30T06:31:09;66.53;;;31.07;;
17890;SDS011;9071;48.220;14.480;2024-01-30T06:36:11;65.37;;;30.27;;
17890;SDS011;9071;48.220;14.480;2024-01-30T06:41:15;61.50;;;30.70;;
17890;SDS011;9071;48.220;14.480;2024-01-30T06:46:17;64.23;;;30.90;;
17890;SDS011;9071;48.220;14.480;2024-01-30T06:51:19;63.00;;;31.47;;
17890;SDS011;9071;48.220;14.480;2024-01-30T06:56:23;61.17;;;30.10;;
17890;SDS011;9071;48.220;14.480;2024-01-30T07:01:27;75.20;;;35.13;;
17890;SDS011;9071;48.220;14.480;2024-01-30T07:06:30;75.53;;;34.10;;
17890;SDS011;9071;48.220;14.480;2024-01-30T07:11:33;66.07;;;32.47;;
17890;SDS011;9071;48.220;14.480;2024-01-30T07:16:35;65.00;;;32.47;;
17890;SDS011;9071;48.220;14.480;2024-01-30T07:21:37;68.63;;;33.80;;
17890;SDS011;9071;48.220;14.480;2024-01-30T07:26:42;64.00;;;33.13;;
17890;SDS011;9071;48.220;14.480;2024-01-30T07:31:44;50.20;;;29.70;;
17890;SDS011;9071;48.220;14.480;2024-01-30T07:36:45;57.07;;;28.83;;
17890;SDS011;9071;48.220;14.480;2024-01-30T07:41:49;54.53;;;28.33;;
17890;SDS011;9071;48.220;14.480;2024-01-30T07:46:51;59.67;;;28.80;;
17890;SDS011;9071;48.220;14.480;2024-01-30T07:51:55;63.90;;;29.67;;
17890;SDS011;9071;48.220;14.480;2024-01-30T07:56:58;69.23;;;30.47;;
17890;SDS011;9071;48.220;14.480;2024-01-30T08:02:00;71.37;;;31.47;;
17890;SDS011;9071;48.220;14.480;2024-01-30T08:07:02;62.00;;;31.17;;
17890;SDS011;9071;48.220;14.480;2024-01-30T08:12:06;70.57;;;29.80;;
17890;SDS011;9071;48.220;14.480;2024-01-30T08:17:08;58.63;;;28.77;;
17890;SDS011;9071;48.220;14.480;2024-01-30T08:22:11;64.23;;;29.93;;
17890;SDS011;9071;48.220;14.480;2024-01-30T08:27:15;83.20;;;39.00;;
17890;SDS011;9071;48.220;14.480;2024-01-30T08:32:18;72.43;;;32.40;;
17890;SDS011;9071;48.220;14.480;2024-01-30T08:37:20;65.53;;;32.03;;
17890;SDS011;9071;48.220;14.480;2024-01-30T08:42:23;69.27;;;34.10;;
17890;SDS011;9071;48.220;14.480;2024-01-30T08:47:25;76.60;;;34.90;;
17890;SDS011;9071;48.220;14.480;2024-01-30T08:52:27;78.77;;;37.77;;
17890;SDS011;9071;48.220;14.480;2024-01-30T08:57:30;83.00;;;37.93;;
17890;SDS011;9071;48.220;14.480;2024-01-30T09:02:32;79.30;;;34.33;;
17890;SDS011;9071;48.220;14.480;2024-01-30T09:07:35;74.77;;;32.57;;
17890;SDS011;9071;48.220;14.480;2024-01-30T09:12:38;71.57;;;31.13;;
17890;SDS011;9071;48.220;14.480;2024-01-30T09:17:40;78.60;;;32.40;;
17890;SDS011;9071;48.220;14.480;2024-01-30T09:22:42;72.50;;;32.30;;
17890;SDS011;9071;48.220;14.480;2024-01-30T09:27:45;76.63;;;34.90;;
17890;SDS011;9071;48.220;14.480;2024-01-30T09:32:48;66.97;;;31.37;;
17890;SDS011;9071;48.220;14.480;2024-01-30T09:37:50;73.30;;;32.93;;
17890;SDS011;9071;48.220;14.480;2024-01-30T09:42:54;66.93;;;31.37;;
17890;SDS011;9071;48.220;14.480;2024-01-30T09:47:58;79.70;;;35.30;;
17890;SDS011;9071;48.220;14.480;2024-01-30T09:53:01;64.17;;;32.27;;
17890;SDS011;9071;48.220;14.480;2024-01-30T09:58:04;80.63;;;36.63;;
17890;SDS011;9071;48.220;14.480;2024-01-30T10:03:07;90.60;;;35.03;;
17890;SDS011;9071;48.220;14.480;2024-01-30T10:08:09;71.03;;;33.73;;
17890;SDS011;9071;48.220;14.480;2024-01-30T10:13:12;64.97;;;29.90;;
17890;SDS011;9071;48.220;14.480;2024-01-30T10:18:14;60.03;;;29.37;;
17890;SDS011;9071;48.220;14.480;2024-01-30T10:23:16;58.07;;;29.37;;
17890;SDS011;9071;48.220;14.480;2024-01-30T10:28:21;56.67;;;28.27;;
17890;SDS011;9071;48.220;14.480;2024-01-30T10:33:23;53.47;;;25.53;;
17890;SDS011;9071;48.220;14.480;2024-01-30T10:38:25;57.77;;;25.80;;
17890;SDS011;9071;48.220;14.480;2024-01-30T10:43:32;56.53;;;26.27;;
17890;SDS011;9071;48.220;14.480;2024-01-30T10:48:36;56.57;;;28.47;;
17890;SDS011;9071;48.220;14.480;2024-01-30T10:53:43;54.60;;;27.43;;
17890;SDS011;9071;48.220;14.480;2024-01-30T10:58:50;60.53;;;27.03;;
17890;SDS011;9071;48.220;14.480;2024-01-30T11:03:54;59.67;;;28.13;;
17890;SDS011;9071;48.220;14.480;2024-01-30T11:09:00;59.57;;;26.90;;
17890;SDS011;9071;48.220;14.480;2024-01-30T11:14:05;57.53;;;26.07;;
17890;SDS011;9071;48.220;14.480;2024-01-30T11:19:10;56.23;;;27.70;;
17890;SDS011;9071;48.220;14.480;2024-01-30T11:24:14;52.30;;;26.00;;
17890;SDS011;9071;48.220;14.480;2024-01-30T11:29:18;52.43;;;24.80;;
17890;SDS011;9071;48.220;14.480;2024-01-30T11:34:20;51.80;;;25.37;;
17890;SDS011;9071;48.220;14.480;2024-01-30T11:39:23;50.97;;;24.80;;
17890;SDS011;9071;48.220;14.480;2024-01-30T11:44:28;50.70;;;25.33;;
17890;SDS011;9071;48.220;14.480;2024-01-30T11:49:30;49.93;;;23.97;;
17890;SDS011;9071;48.220;14.480;2024-01-30T11:54:32;47.27;;;24.07;;
17890;SDS011;9071;48.220;14.480;2024-01-30T11:59:36;45.93;;;24.43;;
17890;SDS011;9071;48.220;14.480;2024-01-30T12:04:38;52.60;;;24.90;;
17890;SDS011;9071;48.220;14.480;2024-01-30T12:09:40;49.17;;;25.37;;
17890;SDS011;9071;48.220;14.480;2024-01-30T12:14:44;50.20;;;23.63;;
17890;SDS011;9071;48.220;14.480;2024-01-30T12:19:46;57.67;;;25.97;;
17890;SDS011;9071;48.220;14.480;2024-01-30T12:24:48;45.67;;;23.80;;
17890;SDS011;9071;48.220;14.480;2024-01-30T12:29:56;46.47;;;23.87;;
17890;SDS011;9071;48.220;14.480;2024-01-30T12:34:59;46.00;;;23.83;;
17890;SDS011;9071;48.220;14.480;2024-01-30T12:40:01;49.03;;;24.07;;
17890;SDS011;9071;48.220;14.480;2024-01-30T12:45:05;45.43;;;23.53;;
17890;SDS011;9071;48.220;14.480;2024-01-30T12:50:08;43.67;;;23.20;;
17890;SDS011;9071;48.220;14.480;2024-01-30T12:55:12;49.60;;;24.30;;
17890;SDS011;9071;48.220;14.480;2024-01-30T13:00:16;49.20;;;25.23;;
17890;SDS011;9071;48.220;14.480;2024-01-30T13:05:18;44.80;;;23.03;;
17890;SDS011;9071;48.220;14.480;2024-01-30T13:10:20;45.20;;;23.33;;
17890;SDS011;9071;48.220;14.480;2024-01-30T13:15:24;45.73;;;22.97;;
17890;SDS011;9071;48.220;14.480;2024-01-30T13:20:26;45.67;;;23.07;;
17890;SDS011;9071;48.220;14.480;2024-01-30T13:25:28;47.30;;;24.27;;
17890;SDS011;9071;48.220;14.480;2024-01-30T13:30:31;48.83;;;24.83;;
17890;SDS011;9071;48.220;14.480;2024-01-30T13:35:33;49.60;;;24.03;;
17890;SDS011;9071;48.220;14.480;2024-01-30T13:40:35;48.27;;;24.77;;
17890;SDS011;9071;48.220;14.480;2024-01-30T13:45:38;50.77;;;24.63;;
17890;SDS011;9071;48.220;14.480;2024-01-30T13:50:42;53.93;;;24.40;;
17890;SDS011;9071;48.220;14.480;2024-01-30T13:55:44;51.10;;;25.60;;
17890;SDS011;9071;48.220;14.480;2024-01-30T14:00:47;48.40;;;23.83;;
17890;SDS011;9071;48.220;14.480;2024-01-30T14:05:50;51.27;;;25.20;;
17890;SDS011;9071;48.220;14.480;2024-01-30T14:10:52;50.27;;;25.00;;
17890;SDS011;9071;48.220;14.480;2024-01-30T14:15:55;55.10;;;25.10;;
17890;SDS011;9071;48.220;14.480;2024-01-30T14:20:57;51.20;;;24.80;;
17890;SDS011;9071;48.220;14.480;2024-01-30T14:25:59;54.43;;;25.20;;
17890;SDS011;9071;48.220;14.480;2024-01-30T14:31:03;51.93;;;24.70;;
17890;SDS011;9071;48.220;14.480;2024-01-30T14:36:06;45.93;;;23.90;;
17890;SDS011;9071;48.220;14.480;2024-01-30T14:41:09;53.23;;;25.10;;
17890;SDS011;9071;48.220;14.480;2024-01-30T14:46:13;50.77;;;24.97;;
17890;SDS011;9071;48.220;14.480;2024-01-30T14:51:15;47.90;;;25.27;;
17890;SDS011;9071;48.220;14.480;2024-01-30T14:56:17;54.63;;;25.87;;
17890;SDS011;9071;48.220;14.480;2024-01-30T15:01:22;51.10;;;24.97;;
17890;SDS011;9071;48.220;14.480;2024-01-30T15:06:24;52.00;;;25.23;;
17890;SDS011;9071;48.220;14.480;2024-01-30T15:11:26;58.90;;;28.83;;
17890;SDS011;9071;48.220;14.480;2024-01-30T15:16:30;53.73;;;26.03;;
17890;SDS011;9071;48.220;14.480;2024-01-30T15:21:32;61.17;;;28.83;;
17890;SDS011;9071;48.220;14.480;2024-01-30T15:26:34;55.80;;;26.30;;
17890;SDS011;9071;48.220;14.480;2024-01-30T15:31:37;53.10;;;27.37;;
17890;SDS011;9071;48.220;14.480;2024-01-30T15:36:39;56.63;;;28.53;;
17890;SDS011;9071;48.220;14.480;2024-01-30T15:41:41;61.27;;;28.97;;
17890;SDS011;9071;48.220;14.480;2024-01-30T15:46:45;64.73;;;29.53;;
17890;SDS011;9071;48.220;14.480;2024-01-30T15:51:47;54.13;;;25.87;;
17890;SDS011;9071;48.220;14.480;2024-01-30T15:56:49;56.50;;;26.90;;
17890;SDS011;9071;48.220;14.480;2024-01-30T16:01:52;65.53;;;31.87;;
17890;SDS011;9071;48.220;14.480;2024-01-30T16:06:54;58.93;;;27.03;;
17890;SDS011;9071;48.220;14.480;2024-01-30T16:11:56;60.97;;;29.53;;
17890;SDS011;9071;48.220;14.480;2024-01-30T16:16:59;61.37;;;28.43;;
17890;SDS011;9071;48.220;14.480;2024-01-30T16:22:01;64.07;;;29.83;;
17890;SDS011;9071;48.220;14.480;2024-01-30T16:27:04;97.40;;;41.93;;
17890;SDS011;9071;48.220;14.480;2024-01-30T16:32:07;62.63;;;32.03;;
17890;SDS011;9071;48.220;14.480;2024-01-30T16:37:09;64.47;;;30.80;;
17890;SDS011;9071;48.220;14.480;2024-01-30T16:42:11;65.93;;;30.27;;
17890;SDS011;9071;48.220;14.480;2024-01-30T16:47:15;63.90;;;31.20;;
17890;SDS011;9071;48.220;14.480;2024-01-30T16:52:17;67.23;;;32.37;;
17890;SDS011;9071;48.220;14.480;2024-01-30T16:57:20;65.10;;;32.50;;
17890;SDS011;9071;48.220;14.480;2024-01-30T17:02:23;70.27;;;33.07;;
17890;SDS011;9071;48.220;14.480;2024-01-30T17:07:26;68.53;;;32.60;;
17890;SDS011;9071;48.220;14.480;2024-01-30T17:12:34;71.03;;;32.57;;
17890;SDS011;9071;48.220;14.480;2024-01-30T17:17:37;78.07;;;32.60;;
17890;SDS011;9071;48.220;14.480;2024-01-30T17:22:39;72.17;;;33.10;;
17890;SDS011;9071;48.220;14.480;2024-01-30T17:27:42;68.00;;;31.63;;
17890;SDS011;9071;48.220;14.480;2024-01-30T17:32:46;61.60;;;29.57;;
17890;SDS011;9071;48.220;14.480;2024-01-30T17:37:48;81.80;;;36.03;;
17890;SDS011;9071;48.220;14.480;2024-01-30T17:42:50;77.20;;;34.70;;
17890;SDS011;9071;48.220;14.480;2024-01-30T17:47:53;90.10;;;37.80;;
17890;SDS011;9071;48.220;14.480;2024-01-30T17:52:55;89.77;;;36.10;;
17890;SDS011;9071;48.220;14.480;2024-01-30T17:57:57;78.20;;;34.13;;
17890;SDS011;9071;48.220;14.480;2024-01-30T18:03:01;81.53;;;34.83;;
17890;SDS011;9071;48.220;14.480;2024-01-30T18:08:04;110.60;;;49.20;;
17890;SDS011;9071;48.220;14.480;2024-01-30T18:13:08;80.27;;;35.03;;
17890;SDS011;9071;48.220;14.480;2024-01-30T18:18:14;76.23;;;35.97;;
17890;SDS011;9071;48.220;14.480;2024-01-30T18:23:17;81.50;;;35.83;;
17890;SDS011;9071;48.220;14.480;2024-01-30T18:28:21;79.93;;;34.30;;
17890;SDS011;9071;48.220;14.480;2024-01-30T18:33:24;77.50;;;35.03;;
17890;SDS011;9071;48.220;14.480;2024-01-30T18:38:26;78.87;;;35.63;;
17890;SDS011;9071;48.220;14.480;2024-01-30T18:43:28;74.33;;;34.53;;
17890;SDS011;9071;48.220;14.480;2024-01-30T18:48:32;79.33;;;35.47;;
17890;SDS011;9071;48.220;14.480;2024-01-30T18:53:35;76.83;;;33.27;;
17890;SDS011;9071;48.220;14.480;2024-01-30T18:58:37;77.80;;;33.90;;
17890;SDS011;9071;48.220;14.480;2024-01-30T19:03:40;80.77;;;38.30;;
17890;SDS011;9071;48.220;14.480;2024-01-30T19:08:42;87.80;;;37.13;;
17890;SDS011;9071;48.220;14.480;2024-01-30T19:13:44;85.93;;;36.30;;
17890;SDS011;9071;48.220;14.480;2024-01-30T19:18:48;88.10;;;37.07;;
17890;SDS011;9071;48.220;14.480;2024-01-30T19:23:50;89.23;;;38.63;;
17890;SDS011;9071;48.220;14.480;2024-01-30T19:28:55;84.23;;;36.93;;
17890;SDS011;9071;48.220;14.480;2024-01-30T19:33:59;81.90;;;34.43;;
17890;SDS011;9071;48.220;14.480;2024-01-30T19:39:01;83.80;;;35.90;;
17890;SDS011;9071;48.220;14.480;2024-01-30T19:44:03;84.60;;;36.50;;
17890;SDS011;9071;48.220;14.480;2024-01-30T19:49:07;85.23;;;36.43;;
17890;SDS011;9071;48.220;14.480;2024-01-30T19:54:09;92.10;;;36.80;;
17890;SDS011;9071;48.220;14.480;2024-01-30T19:59:13;92.70;;;36.17;;
17890;SDS011;9071;48.220;14.480;2024-01-30T20:04:16;89.43;;;36.77;;
17890;SDS011;9071;48.220;14.480;2024-01-30T20:09:18;98.50;;;39.43;;
17890;SDS011;9071;48.220;14.480;2024-01-30T20:14:20;101.23;;;39.43;;
17890;SDS011;9071;48.220;14.480;2024-01-30T20:19:24;103.53;;;41.03;;
17890;SDS011;9071;48.220;14.480;2024-01-30T20:24:25;96.07;;;39.40;;
17890;SDS011;9071;48.220;14.480;2024-01-30T20:29:28;116.63;;;42.43;;
17890;SDS011;9071;48.220;14.480;2024-01-30T20:34:32;120.47;;;42.23;;
17890;SDS011;9071;48.220;14.480;2024-01-30T20:39:34;117.30;;;41.87;;
17890;SDS011;9071;48.220;14.480;2024-01-30T20:44:36;132.97;;;44.90;;
17890;SDS011;9071;48.220;14.480;2024-01-30T20:49:40;123.73;;;41.90;;
17890;SDS011;9071;48.220;14.480;2024-01-30T20:54:42;125.33;;;43.23;;
17890;SDS011;9071;48.220;14.480;2024-01-30T20:59:44;118.90;;;40.37;;
17890;SDS011;9071;48.220;14.480;2024-01-30T21:04:47;119.17;;;42.00;;
17890;SDS011;9071;48.220;14.480;2024-01-30T21:09:49;120.97;;;41.60;;
17890;SDS011;9071;48.220;14.480;2024-01-30T21:14:51;125.83;;;42.90;;
17890;SDS011;9071;48.220;14.480;2024-01-30T21:19:54;341.20;;;104.83;;
17890;SDS011;9071;48.220;14.480;2024-01-30T21:24:56;120.50;;;41.83;;
17890;SDS011;9071;48.220;14.480;2024-01-30T21:29:58;106.10;;;40.50;;
17890;SDS011;9071;48.220;14.480;2024-01-30T21:35:02;105.80;;;38.80;;
17890;SDS011;9071;48.220;14.480;2024-01-30T21:40:05;104.00;;;38.53;;
17890;SDS011;9071;48.220;14.480;2024-01-30T21:45:09;110.43;;;38.80;;
17890;SDS011;9071;48.220;14.480;2024-01-30T21:50:13;109.03;;;39.40;;
17890;SDS011;9071;48.220;14.480;2024-01-30T21:55:20;96.90;;;35.67;;
17890;SDS011;9071;48.220;14.480;2024-01-30T22:00:22;116.43;;;38.47;;
17890;SDS011;9071;48.220;14.480;2024-01-30T22:05:25;112.53;;;38.47;;
17890;SDS011;9071;48.220;14.480;2024-01-30T22:10:27;121.33;;;41.40;;
17890;SDS011;9071;48.220;14.480;2024-01-30T22:15:29;119.27;;;40.07;;
17890;SDS011;9071;48.220;14.480;2024-01-30T22:20:34;117.47;;;38.50;;
17890;SDS011;9071;48.220;14.480;2024-01-30T22:25:36;108.13;;;38.37;;
17890;SDS011;9071;48.220;14.480;2024-01-30T22:30:38;110.70;;;36.73;;
17890;SDS011;9071;48.220;14.480;2024-01-30T22:35:42;120.73;;;37.43;;
17890;SDS011;9071;48.220;14.480;2024-01-30T22:40:44;144.40;;;41.93;;
17890;SDS011;9071;48.220;14.480;2024-01-30T22:45:46;151.63;;;45.27;;
17890;SDS011;9071;48.220;14.480;2024-01-30T22:50:49;103.30;;;36.43;;
17890;SDS011;9071;48.220;14.480;2024-01-30T22:55:51;104.87;;;34.93;;
17890;SDS011;9071;48.220;14.480;2024-01-30T23:00:53;118.03;;;36.27;;
17890;SDS011;9071;48.220;14.480;2024-01-30T23:05:57;107.23;;;35.47;;
17890;SDS011;9071;48.220;14.480;2024-01-30T23:10:59;107.57;;;34.80;;
17890;SDS011;9071;48.220;14.480;2024-01-30T23:16:01;94.80;;;33.20;;
17890;SDS011;9071;48.220;14.480;2024-01-30T23:21:04;99.03;;;32.63;;
17890;SDS011;9071;48.220;14.480;2024-01-30T23:26:06;122.60;;;33.47;;
17890;SDS011;9071;48.220;14.480;2024-01-30T23:31:08;135.10;;;37.13;;
17890;SDS011;9071;48.220;14.480;2024-01-30T23:36:12;142.33;;;36.07;;
17890;SDS011;9071;48.220;14.480;2024-01-30T23:41:15;129.77;;;36.37;;
17890;SDS011;9071;48.220;14.480;2024-01-30T23:46:17;131.07;;;37.33;;
17890;SDS011;9071;48.220;14.480;2024-01-30T23:51:20;145.97;;;37.53;;
17890;SDS011;9071;48.220;14.480;2024-01-30T23:56:23;131.07;;;36.03;;
